createdAt,value
2019-02-12T00:01:58.514Z,2.90
2019-02-12T00:04:35.271Z,2.50
2019-02-12T00:07:12.053Z,3.42
2019-02-12T00:09:49.139Z,2.60
2019-02-12T00:12:26.026Z,2.62
2019-02-12T00:15:03.410Z,2.08
2019-02-12T00:17:40.280Z,1.98
2019-02-12T00:20:17.051Z,2.07
2019-02-12T00:22:53.735Z,2.10
2019-02-12T00:25:30.514Z,2.25
2019-02-12T00:28:07.278Z,2.02
2019-02-12T00:30:44.052Z,1.70
2019-02-12T00:33:20.829Z,2.10
2019-02-12T00:35:57.621Z,2.10
2019-02-12T00:38:34.387Z,1.98
2019-02-12T00:41:11.173Z,1.90
2019-02-12T00:43:48.044Z,2.60
2019-02-12T00:46:24.811Z,2.33
2019-02-12T00:49:01.591Z,2.22
2019-02-12T00:51:38.378Z,3.50
2019-02-12T00:54:15.146Z,2.33
2019-02-12T00:56:51.925Z,2.42
2019-02-12T00:59:28.699Z,2.25
2019-02-12T01:02:05.589Z,3.20
2019-02-12T01:04:42.405Z,2.55
2019-02-12T01:07:19.224Z,2.37
2019-02-12T01:09:55.997Z,3.52
2019-02-12T01:12:32.771Z,2.22
2019-02-12T01:15:14.251Z,2.58
2019-02-12T01:17:50.945Z,2.98
2019-02-12T01:20:27.713Z,2.98
2019-02-12T01:23:04.476Z,2.87
2019-02-12T01:25:41.151Z,2.67
2019-02-12T01:28:17.926Z,2.70
2019-02-12T01:30:54.703Z,2.65
2019-02-12T01:33:31.476Z,2.50
2019-02-12T01:36:08.252Z,2.30
2019-02-12T01:38:45.031Z,2.33
2019-02-12T01:41:21.809Z,2.67
2019-02-12T01:43:58.498Z,3.20
2019-02-12T01:46:35.257Z,2.90
2019-02-12T01:49:12.038Z,2.22
2019-02-12T01:51:48.921Z,2.92
2019-02-12T01:54:25.696Z,2.50
2019-02-12T01:57:02.463Z,2.67
2019-02-12T01:59:40.269Z,2.95
2019-02-12T02:02:17.142Z,2.90
2019-02-12T02:04:53.914Z,2.80
2019-02-12T02:07:30.690Z,3.25
2019-02-12T02:10:16.619Z,3.80
2019-02-12T02:12:53.359Z,3.58
2019-02-12T02:15:30.240Z,3.92
2019-02-12T02:18:07.004Z,3.83
2019-02-12T02:20:43.704Z,4.12
2019-02-12T02:23:20.661Z,5.15
2019-02-12T02:25:57.433Z,4.20
2019-02-12T02:28:34.322Z,4.58
2019-02-12T02:31:11.106Z,4.90
2019-02-12T02:33:47.980Z,5.58
2019-02-12T02:36:24.756Z,5.25
2019-02-12T02:39:01.633Z,5.50
2019-02-12T02:41:39.949Z,5.40
2019-02-12T02:44:16.825Z,5.90
2019-02-12T02:46:53.587Z,5.40
2019-02-12T02:49:30.373Z,6.50
2019-02-12T02:52:07.252Z,6.60
2019-02-12T02:54:44.012Z,6.75
2019-02-12T02:57:20.802Z,5.87
2019-02-12T02:59:57.589Z,5.70
2019-02-12T03:02:37.480Z,4.85
2019-02-12T03:05:14.185Z,5.92
2019-02-12T03:07:51.080Z,6.35
2019-02-12T03:10:28.059Z,6.15
2019-02-12T03:13:04.939Z,5.83
2019-02-12T03:15:41.702Z,5.12
2019-02-12T03:18:18.489Z,5.35
2019-02-12T03:20:55.257Z,5.15
2019-02-12T03:23:31.925Z,4.83
2019-02-12T03:26:08.702Z,6.00
2019-02-12T03:28:45.483Z,5.97
2019-02-12T03:31:22.258Z,6.53
2019-02-12T03:33:59.027Z,5.65
2019-02-12T03:36:35.815Z,6.28
2019-02-12T03:39:12.578Z,5.83
2019-02-12T03:41:49.462Z,6.87
2019-02-12T03:44:26.238Z,6.05
2019-02-12T03:47:04.448Z,6.50
2019-02-12T03:49:42.239Z,6.58
2019-02-12T03:52:20.055Z,6.20
2019-02-12T03:54:56.827Z,6.10
2019-02-12T03:57:33.663Z,6.75
2019-02-12T04:00:14.115Z,7.67
2019-02-12T04:03:08.585Z,7.85
2019-02-12T04:05:45.435Z,7.65
2019-02-12T04:08:22.215Z,6.58
2019-02-12T04:10:58.981Z,6.72
2019-02-12T04:13:35.852Z,7.80
2019-02-12T04:16:12.624Z,6.87
2019-02-12T04:18:49.417Z,6.42
2019-02-12T04:21:26.190Z,7.85
2019-02-12T04:24:02.973Z,6.35
2019-02-12T04:26:39.743Z,5.85
2019-02-12T04:29:16.728Z,6.17
2019-02-12T04:31:53.586Z,4.60
2019-02-12T04:34:30.400Z,4.83
2019-02-12T04:37:07.153Z,4.35
2019-02-12T04:39:43.927Z,5.62
2019-02-12T04:42:20.806Z,5.25
2019-02-12T04:44:57.682Z,4.67
2019-02-12T04:47:34.452Z,4.47
2019-02-12T04:50:14.402Z,3.57
2019-02-12T04:52:51.177Z,3.10
2019-02-12T04:55:27.948Z,4.60
2019-02-12T04:58:04.731Z,3.42
2019-02-12T05:00:41.688Z,3.40
2019-02-12T05:03:18.373Z,3.70
2019-02-12T05:05:56.098Z,4.10
2019-02-12T05:08:59.897Z,2.60
2019-02-12T05:11:36.677Z,3.00
2019-02-12T05:14:13.386Z,3.02
2019-02-12T05:16:50.078Z,3.00
2019-02-12T05:19:26.778Z,2.75
2019-02-12T05:22:03.451Z,3.02
2019-02-12T05:24:40.159Z,2.87
2019-02-12T05:27:16.861Z,2.95
2019-02-12T05:29:53.646Z,2.77
2019-02-12T05:32:30.385Z,2.30
2019-02-12T05:35:07.899Z,4.05
2019-02-12T05:37:44.592Z,2.52
2019-02-12T05:40:21.304Z,2.70
2019-02-12T05:42:58.014Z,2.55
2019-02-12T05:45:34.677Z,2.37
2019-02-12T05:48:11.327Z,2.62
2019-02-12T05:50:48.036Z,2.20
2019-02-12T05:53:24.732Z,2.33
2019-02-12T05:56:01.526Z,3.42
2019-02-12T05:58:38.270Z,2.10
2019-02-12T06:01:16.450Z,2.55
2019-02-12T06:03:53.194Z,2.77
2019-02-12T06:06:30.449Z,3.22
2019-02-12T06:09:07.253Z,3.67
2019-02-12T06:11:44.032Z,2.92
2019-02-12T06:14:20.824Z,2.30
2019-02-12T06:16:57.585Z,2.90
2019-02-12T06:19:35.899Z,2.58
2019-02-12T06:22:12.666Z,2.70
2019-02-12T06:24:49.462Z,3.45
2019-02-12T06:27:26.217Z,2.83
2019-02-12T06:30:03.010Z,3.37
2019-02-12T06:32:39.738Z,2.87
2019-02-12T06:35:16.563Z,2.83
2019-02-12T06:37:53.320Z,2.83
2019-02-12T06:40:30.100Z,3.05
2019-02-12T06:43:06.774Z,3.55
2019-02-12T06:45:43.549Z,3.58
2019-02-12T06:48:20.320Z,3.83
2019-02-12T06:50:57.100Z,4.50
2019-02-12T06:53:33.901Z,3.33
2019-02-12T06:56:10.660Z,4.12
2019-02-12T06:58:47.441Z,3.40
2019-02-12T07:01:24.123Z,3.30
2019-02-12T07:04:01.080Z,3.67
2019-02-12T07:06:48.171Z,3.10
2019-02-12T07:09:35.595Z,3.05
2019-02-12T07:12:39.953Z,2.30
2019-02-12T07:15:21.444Z,2.98
2019-02-12T07:18:17.780Z,3.60
2019-02-12T07:21:19.977Z,3.17
2019-02-12T07:26:54.862Z,2.30
2019-02-12T07:29:57.383Z,3.00
2019-02-12T07:32:56.698Z,3.15
2019-02-12T07:35:52.595Z,4.25
2019-02-12T07:38:52.034Z,4.20
2019-02-12T07:41:47.850Z,5.00
2019-02-12T07:44:50.212Z,3.75
2019-02-12T07:48:03.323Z,3.10
2019-02-12T07:50:57.012Z,3.47
2019-02-12T07:53:53.535Z,3.45
2019-02-12T07:56:43.841Z,3.80
2019-02-12T07:59:28.078Z,4.00
2019-02-12T08:02:26.270Z,3.25
2019-02-12T08:05:24.126Z,2.42
2019-02-12T08:08:40.443Z,3.67
2019-02-12T08:11:21.917Z,3.15
2019-02-12T08:14:15.482Z,3.25
2019-02-12T08:20:35.911Z,3.35
2019-02-12T08:23:54.175Z,3.00
2019-02-12T08:26:35.653Z,3.40
2019-02-12T08:29:26.353Z,4.15
2019-02-12T08:32:26.980Z,3.67
2019-02-12T08:35:57.059Z,4.47
2019-02-12T08:39:04.710Z,5.60
2019-02-12T08:42:16.816Z,5.55
2019-02-12T08:45:37.620Z,4.78
2019-02-12T08:48:21.975Z,4.60
2019-02-12T08:51:12.270Z,3.98
2019-02-12T08:54:11.462Z,5.25
2019-02-12T08:56:58.272Z,4.45
2019-02-12T08:59:51.050Z,6.17
2019-02-12T09:03:07.332Z,5.80
2019-02-12T09:06:04.176Z,5.62
2019-02-12T09:09:36.047Z,5.90
2019-02-12T09:12:38.512Z,4.00
2019-02-12T09:15:51.847Z,4.50
2019-02-12T09:18:45.325Z,4.08
2019-02-12T09:21:44.619Z,4.08
2019-02-12T09:24:37.777Z,3.75
2019-02-12T09:27:30.829Z,4.30
2019-02-12T09:30:21.034Z,4.15
2019-02-12T09:33:35.727Z,3.80
2019-02-12T09:36:39.504Z,4.00
2019-02-12T09:39:29.592Z,5.10
2019-02-12T09:42:19.823Z,4.08
2019-02-12T09:45:22.572Z,3.72
2019-02-12T09:48:18.591Z,3.90
2019-02-12T09:51:06.010Z,3.35
2019-02-12T09:54:08.469Z,4.00
2019-02-12T09:57:04.110Z,4.65
2019-02-12T09:59:57.366Z,3.85
2019-02-12T10:02:53.821Z,4.50
2019-02-12T10:05:51.884Z,3.85
2019-02-12T10:09:12.486Z,4.80
2019-02-12T10:12:05.749Z,3.90
2019-02-12T10:15:04.349Z,3.58
2019-02-12T10:18:10.054Z,3.30
2019-02-12T10:21:31.723Z,3.87
2019-02-12T10:24:33.785Z,3.40
2019-02-12T10:27:20.828Z,4.60
2019-02-12T10:30:14.678Z,3.95
2019-02-12T10:32:51.565Z,3.77
2019-02-12T10:35:28.338Z,4.87
2019-02-12T10:38:05.119Z,4.45
2019-02-12T10:40:41.887Z,5.45
2019-02-12T10:43:18.657Z,5.05
2019-02-12T10:45:55.429Z,4.47
2019-02-12T10:48:32.217Z,3.12
2019-02-12T10:51:09.920Z,3.65
2019-02-12T10:53:46.795Z,3.45
2019-02-12T10:56:23.608Z,3.30
2019-02-12T10:59:00.448Z,2.52
2019-02-12T11:01:37.235Z,3.83
2019-02-12T11:04:13.985Z,3.65
2019-02-12T11:06:50.771Z,3.58
2019-02-12T11:09:27.449Z,3.50
2019-02-12T11:12:04.326Z,3.62
2019-02-12T11:14:41.100Z,3.10
2019-02-12T11:17:17.931Z,4.05
2019-02-12T11:19:54.756Z,3.20
2019-02-12T11:22:31.530Z,3.62
2019-02-12T11:25:09.684Z,3.90
2019-02-12T11:27:46.413Z,2.95
2019-02-12T11:30:23.294Z,3.53
2019-02-12T11:33:00.169Z,3.15
2019-02-12T11:35:37.031Z,3.37
2019-02-12T11:38:13.923Z,3.08
2019-02-12T11:40:50.701Z,3.17
2019-02-12T11:43:27.567Z,2.65
2019-02-12T11:46:04.350Z,3.05
2019-02-12T11:48:41.114Z,3.00
2019-02-12T11:51:17.898Z,3.55
2019-02-12T11:53:54.684Z,3.30
2019-02-12T11:56:32.172Z,3.15
2019-02-12T11:59:08.944Z,2.98
2019-02-12T12:01:45.828Z,3.10
2019-02-12T12:04:22.595Z,3.25
2019-02-12T12:06:59.374Z,3.05
2019-02-12T12:09:36.035Z,2.95
2019-02-12T12:12:12.819Z,3.12
2019-02-12T12:14:49.591Z,3.25
2019-02-12T12:17:27.302Z,2.90
2019-02-12T12:20:05.897Z,3.55
2019-02-12T12:22:42.693Z,2.60
2019-02-12T12:25:19.460Z,2.95
2019-02-12T12:27:56.240Z,3.83
2019-02-12T12:30:33.007Z,2.83
2019-02-12T12:33:09.892Z,3.05
2019-02-12T12:35:46.666Z,3.12
2019-02-12T12:38:23.369Z,3.08
2019-02-12T12:41:00.123Z,2.58
2019-02-12T12:43:37.001Z,2.77
2019-02-12T12:46:13.772Z,2.92
2019-02-12T12:48:50.533Z,3.40
2019-02-12T12:51:27.328Z,2.98
2019-02-12T12:54:04.093Z,2.90
2019-02-12T12:56:40.970Z,3.37
2019-02-12T12:59:17.766Z,3.58
2019-02-12T13:01:54.629Z,3.17
2019-02-12T13:04:31.396Z,3.00
2019-02-12T13:07:08.181Z,3.20
2019-02-12T13:09:44.961Z,3.00
2019-02-12T13:12:21.622Z,2.87
2019-02-12T13:14:58.396Z,4.25
2019-02-12T13:17:35.182Z,2.75
2019-02-12T13:20:18.195Z,2.20
2019-02-12T13:22:54.981Z,3.60
2019-02-12T13:25:31.710Z,2.92
2019-02-12T13:28:08.417Z,3.35
2019-02-12T13:30:45.200Z,4.28
2019-02-12T13:33:21.985Z,3.25
2019-02-12T13:35:58.754Z,3.30
2019-02-12T13:38:35.523Z,3.22
2019-02-12T13:41:12.295Z,2.87
2019-02-12T13:43:49.073Z,3.65
2019-02-12T13:46:25.810Z,3.98
2019-02-12T13:49:02.534Z,3.58
2019-02-12T13:51:39.403Z,3.42
2019-02-12T13:54:16.070Z,3.90
2019-02-12T13:56:54.092Z,3.83
2019-02-12T13:59:30.858Z,4.45
2019-02-12T14:02:07.747Z,5.67
2019-02-12T14:04:44.405Z,7.15
2019-02-12T14:07:21.192Z,4.58
2019-02-12T14:09:57.968Z,4.12
2019-02-12T14:12:35.144Z,3.30
2019-02-12T14:15:15.821Z,3.98
2019-02-12T14:17:52.595Z,3.80
2019-02-12T14:20:29.374Z,3.55
2019-02-12T14:23:06.249Z,2.92
2019-02-12T14:25:42.908Z,3.10
2019-02-12T14:28:19.893Z,3.33
2019-02-12T14:30:56.702Z,3.92
2019-02-12T14:33:33.449Z,3.87
2019-02-12T14:36:10.096Z,3.75
2019-02-12T14:38:46.895Z,3.10
2019-02-12T14:41:23.663Z,3.50
2019-02-12T14:44:02.093Z,3.17
2019-02-12T14:46:38.753Z,3.58
2019-02-12T14:49:15.747Z,3.98
2019-02-12T14:51:52.619Z,4.00
2019-02-12T14:54:29.808Z,4.67
2019-02-12T14:57:06.579Z,4.65
2019-02-12T14:59:43.351Z,3.70
2019-02-12T15:02:20.030Z,3.87
2019-02-12T15:05:00.512Z,3.87
2019-02-12T15:07:35.420Z,3.50
2019-02-12T15:10:14.873Z,3.43
2019-02-12T15:12:51.633Z,4.22
2019-02-12T15:15:28.412Z,4.28
2019-02-12T15:18:05.076Z,5.08
2019-02-12T15:20:41.854Z,6.95
2019-02-12T15:23:18.635Z,6.70
2019-02-12T15:25:55.403Z,8.65
2019-02-12T15:28:32.186Z,7.37
2019-02-12T15:31:08.971Z,11.28
2019-02-12T15:33:45.744Z,9.10
2019-02-12T15:36:22.514Z,11.83
2019-02-12T15:38:59.296Z,9.30
2019-02-12T15:41:36.071Z,9.13
2019-02-12T15:44:12.857Z,10.85
2019-02-12T15:46:49.625Z,9.80
2019-02-12T15:49:26.399Z,7.85
2019-02-12T15:52:03.274Z,7.35
2019-02-12T15:54:40.047Z,9.18
2019-02-12T15:57:16.924Z,7.72
2019-02-12T15:59:54.168Z,10.13
2019-02-12T16:02:33.952Z,8.00
2019-02-12T16:05:12.442Z,7.70
2019-02-12T16:07:49.358Z,9.60
2019-02-12T16:10:26.133Z,9.95
2019-02-12T16:13:03.015Z,8.33
2019-02-12T16:15:39.784Z,8.60
2019-02-12T16:18:16.558Z,7.83
2019-02-12T16:20:53.242Z,8.33
2019-02-12T16:23:30.107Z,6.75
2019-02-12T16:26:06.886Z,7.55
2019-02-12T16:28:43.659Z,6.65
2019-02-12T16:31:20.537Z,6.92
2019-02-12T16:33:57.729Z,7.15
2019-02-12T16:36:34.503Z,9.03
2019-02-12T16:39:11.276Z,9.80
2019-02-12T16:41:48.052Z,9.33
2019-02-12T16:44:24.815Z,8.83
2019-02-12T16:47:01.614Z,7.70
2019-02-12T16:49:38.372Z,7.42
2019-02-12T16:52:20.725Z,6.62
2019-02-12T16:54:53.665Z,7.67
2019-02-12T16:57:30.880Z,6.92
2019-02-12T17:00:17.463Z,8.28
2019-02-12T17:02:54.342Z,8.60
2019-02-12T17:05:31.211Z,9.78
2019-02-12T17:08:10.354Z,10.80
2019-02-12T17:10:47.122Z,7.45
2019-02-12T17:13:24.617Z,7.20
2019-02-12T17:16:01.550Z,7.78
2019-02-12T17:18:38.382Z,7.83
2019-02-12T17:21:15.147Z,9.78
2019-02-12T17:23:52.030Z,11.43
2019-02-12T17:26:29.813Z,9.80
2019-02-12T17:29:06.593Z,9.45
2019-02-12T17:31:43.884Z,7.28
2019-02-12T17:34:20.667Z,9.73
2019-02-12T17:36:57.440Z,14.73
2019-02-12T17:39:34.202Z,10.00
2019-02-12T17:42:11.083Z,13.78
2019-02-12T17:44:47.863Z,16.00
2019-02-12T17:47:24.631Z,10.78
2019-02-12T17:50:01.424Z,12.30
2019-02-12T17:52:38.607Z,13.53
2019-02-12T17:55:15.375Z,8.60
2019-02-12T17:57:52.149Z,9.50
2019-02-12T18:00:30.677Z,10.98
2019-02-12T18:03:07.860Z,7.87
2019-02-12T18:05:44.620Z,7.55
2019-02-12T18:08:21.409Z,8.58
2019-02-12T18:10:58.184Z,6.62
2019-02-12T18:13:35.060Z,8.00
2019-02-12T18:16:11.833Z,7.25
2019-02-12T18:18:48.617Z,8.58
2019-02-12T18:21:25.376Z,7.37
2019-02-12T18:24:02.202Z,10.95
2019-02-12T18:26:39.048Z,14.68
2019-02-12T18:29:15.818Z,11.90
2019-02-12T18:31:52.696Z,11.38
2019-02-12T18:34:29.466Z,8.75
2019-02-12T18:37:06.245Z,8.30
2019-02-12T18:39:43.017Z,8.38
2019-02-12T18:42:19.901Z,8.48
2019-02-12T18:44:56.689Z,8.08
2019-02-12T18:47:33.447Z,9.15
2019-02-12T18:50:12.100Z,7.72
2019-02-12T18:52:49.042Z,8.65
2019-02-12T18:55:25.814Z,7.60
2019-02-12T18:58:02.588Z,10.82
2019-02-12T19:00:39.371Z,7.62
2019-02-12T19:03:16.558Z,6.47
2019-02-12T19:05:53.466Z,7.22
2019-02-12T19:08:30.333Z,6.40
2019-02-12T19:11:07.109Z,9.03
2019-02-12T19:13:43.901Z,7.30
2019-02-12T19:16:20.633Z,7.45
2019-02-12T19:18:57.431Z,8.30
2019-02-12T19:21:34.181Z,9.40
2019-02-12T19:24:10.886Z,10.18
2019-02-12T19:26:49.955Z,8.63
2019-02-12T19:29:26.066Z,8.65
2019-02-12T19:32:02.899Z,7.90
2019-02-12T19:34:39.595Z,8.65
2019-02-12T19:37:16.351Z,7.20
2019-02-12T19:39:53.364Z,10.93
2019-02-12T19:42:30.146Z,8.85
2019-02-12T19:45:11.472Z,11.10
2019-02-12T19:47:48.183Z,13.75
2019-02-12T19:50:24.880Z,16.80
2019-02-12T19:53:01.669Z,13.70
2019-02-12T19:55:38.336Z,16.15
2019-02-12T19:58:15.159Z,14.87
2019-02-12T20:00:51.944Z,10.63
2019-02-12T20:03:28.811Z,9.58
2019-02-12T20:06:05.753Z,11.43
2019-02-12T20:08:42.504Z,11.53
2019-02-12T20:11:19.278Z,10.35
2019-02-12T20:13:56.158Z,13.95
2019-02-12T20:16:34.267Z,11.45
2019-02-12T20:19:11.035Z,12.53
2019-02-12T20:21:48.017Z,11.25
2019-02-12T20:24:25.816Z,12.10
2019-02-12T20:27:06.744Z,11.05
2019-02-12T20:29:40.999Z,14.63
2019-02-12T20:32:17.888Z,14.53
2019-02-12T20:34:54.656Z,13.72
2019-02-12T20:37:31.438Z,13.15
2019-02-12T20:40:13.921Z,11.30
2019-02-12T20:42:50.830Z,10.63
2019-02-12T20:45:27.602Z,12.18
2019-02-12T20:48:04.376Z,10.23
2019-02-12T20:50:41.046Z,10.82
2019-02-12T20:53:18.235Z,12.95
2019-02-12T20:55:55.009Z,11.15
2019-02-12T20:58:31.787Z,12.18
2019-02-12T21:01:08.568Z,13.88
2019-02-12T21:03:45.337Z,12.83
2019-02-12T21:06:22.105Z,11.10
2019-02-12T21:08:58.877Z,11.18
2019-02-12T21:11:35.668Z,11.78
2019-02-12T21:14:12.385Z,11.85
2019-02-12T21:16:49.112Z,11.25
2019-02-12T21:19:25.875Z,11.97
2019-02-12T21:22:02.771Z,10.25
2019-02-12T21:24:39.533Z,8.78
2019-02-12T21:27:23.231Z,10.65
2019-02-12T21:29:54.720Z,11.22
2019-02-12T21:32:31.599Z,12.63
2019-02-12T21:35:11.459Z,11.68
2019-02-12T21:37:48.234Z,11.48
2019-02-12T21:40:28.900Z,13.38
2019-02-12T21:43:05.810Z,11.90
2019-02-12T21:45:47.358Z,11.93
2019-02-12T21:48:24.265Z,11.85
2019-02-12T21:51:00.943Z,10.72
2019-02-12T21:53:37.703Z,10.08
2019-02-12T21:56:14.380Z,10.23
2019-02-12T21:58:51.097Z,10.30
2019-02-12T22:01:28.750Z,11.80
2019-02-12T22:04:05.454Z,11.85
2019-02-12T22:06:42.313Z,11.35
2019-02-12T22:09:19.067Z,11.00
2019-02-12T22:11:56.738Z,9.45
2019-02-12T22:14:33.636Z,10.75
2019-02-12T22:17:10.332Z,10.10
2019-02-12T22:19:48.006Z,10.25
2019-02-12T22:22:24.760Z,11.28
2019-02-12T22:25:01.911Z,11.12
2019-02-12T22:27:40.618Z,11.68
2019-02-12T22:30:23.082Z,11.77
2019-02-12T22:32:59.872Z,12.00
2019-02-12T22:35:36.637Z,12.15
2019-02-12T22:38:13.422Z,13.05
2019-02-12T22:40:50.208Z,12.93
2019-02-12T22:43:27.281Z,16.30
2019-02-12T22:46:04.145Z,16.45
2019-02-12T22:48:41.043Z,16.37
2019-02-12T22:51:17.814Z,15.35
2019-02-12T22:53:54.594Z,15.13
2019-02-12T22:56:31.352Z,11.68
2019-02-12T22:59:08.436Z,12.70
2019-02-12T23:01:45.330Z,16.20
2019-02-12T23:04:22.103Z,17.52
2019-02-12T23:06:58.864Z,13.65
2019-02-12T23:09:35.947Z,16.15
2019-02-12T23:12:13.068Z,19.75
2019-02-12T23:14:49.818Z,20.65
2019-02-12T23:17:26.595Z,17.50
2019-02-12T23:20:03.576Z,16.75
2019-02-12T23:22:41.471Z,17.15
2019-02-12T23:25:18.239Z,14.90
2019-02-12T23:27:57.717Z,11.65
2019-02-12T23:30:33.543Z,10.53
2019-02-12T23:33:10.417Z,12.80
2019-02-12T23:35:47.190Z,11.30
2019-02-12T23:38:23.966Z,11.30
2019-02-12T23:41:00.740Z,9.45
2019-02-12T23:43:37.628Z,11.97
2019-02-12T23:46:14.389Z,11.75
2019-02-12T23:48:51.166Z,11.12
2019-02-12T23:51:28.055Z,11.05
2019-02-12T23:54:04.828Z,11.78
2019-02-12T23:56:41.607Z,11.70
2019-02-12T23:59:18.379Z,10.03
